createdAt,value
2022-10-03T00:01:41.288Z,11.00
2022-10-03T00:04:08.120Z,11.00
2022-10-03T00:06:54.994Z,10.80
2022-10-03T00:09:27.555Z,10.90
2022-10-03T00:12:04.410Z,11.00
2022-10-03T00:14:57.943Z,11.10
2022-10-03T00:17:46.205Z,11.00
2022-10-03T00:20:31.183Z,11.10
2022-10-03T00:23:12.862Z,11.10
2022-10-03T00:25:57.154Z,11.10
2022-10-03T00:28:42.294Z,11.00
2022-10-03T00:31:23.818Z,10.90
2022-10-03T00:34:27.985Z,11.00
2022-10-03T00:37:20.918Z,11.00
2022-10-03T00:40:18.610Z,11.00
2022-10-03T00:43:04.451Z,11.00
2022-10-03T00:45:58.949Z,10.90
2022-10-03T00:48:45.025Z,10.80
2022-10-03T00:51:45.719Z,10.70
2022-10-03T00:54:47.506Z,10.80
2022-10-03T00:57:37.822Z,10.80
2022-10-03T01:00:16.142Z,10.80
2022-10-03T01:02:55.633Z,10.80
2022-10-03T01:05:38.306Z,10.90
2022-10-03T01:08:43.614Z,10.80
2022-10-03T01:11:28.509Z,10.80
2022-10-03T01:14:23.317Z,10.80
2022-10-03T01:17:02.358Z,10.80
2022-10-03T01:19:53.971Z,10.80
2022-10-03T01:22:51.306Z,10.80
2022-10-03T01:25:37.492Z,10.90
2022-10-03T01:28:41.320Z,10.90
2022-10-03T01:31:12.422Z,10.80
2022-10-03T01:34:15.724Z,10.80
2022-10-03T01:37:02.333Z,10.80
2022-10-03T01:39:34.818Z,10.80
2022-10-03T01:42:35.285Z,10.70
2022-10-03T01:45:26.122Z,10.70
2022-10-03T01:48:11.329Z,10.70
2022-10-03T01:50:57.830Z,10.60
2022-10-03T01:53:41.456Z,10.50
2022-10-03T01:56:11.519Z,10.20
2022-10-03T01:58:50.070Z,10.40
2022-10-03T02:01:31.515Z,10.50
2022-10-03T02:04:06.765Z,10.50
2022-10-03T02:06:58.236Z,10.40
2022-10-03T02:09:37.001Z,10.40
2022-10-03T02:12:17.748Z,10.40
2022-10-03T02:14:57.090Z,10.40
2022-10-03T02:17:30.654Z,10.50
2022-10-03T02:20:07.842Z,10.40
2022-10-03T02:22:42.690Z,10.50
2022-10-03T02:25:22.218Z,10.50
2022-10-03T02:28:07.864Z,10.40
2022-10-03T02:30:47.728Z,10.50
2022-10-03T02:33:46.756Z,10.60
2022-10-03T02:36:22.155Z,10.50
2022-10-03T02:39:13.635Z,10.40
2022-10-03T02:42:04.276Z,10.10
2022-10-03T02:44:49.717Z,10.20
2022-10-03T02:47:38.125Z,10.40
2022-10-03T02:50:33.830Z,10.40
2022-10-03T02:53:41.923Z,10.40
2022-10-03T02:56:33.286Z,10.40
2022-10-03T02:59:28.685Z,10.40
2022-10-03T03:02:19.385Z,10.40
2022-10-03T03:05:27.313Z,10.40
2022-10-03T03:08:12.763Z,10.50
2022-10-03T03:11:16.324Z,10.50
2022-10-03T03:14:19.781Z,10.50
2022-10-03T03:17:01.532Z,10.50
2022-10-03T03:19:36.906Z,10.50
2022-10-03T03:22:39.546Z,10.40
2022-10-03T03:25:35.206Z,10.40
2022-10-03T03:28:32.430Z,10.50
2022-10-03T03:31:10.298Z,10.30
2022-10-03T03:33:51.439Z,10.40
2022-10-03T03:36:33.571Z,10.40
2022-10-03T03:39:24.184Z,10.40
2022-10-03T03:42:22.325Z,10.40
2022-10-03T03:45:13.811Z,10.20
2022-10-03T03:48:12.472Z,10.30
2022-10-03T03:51:00.075Z,10.30
2022-10-03T03:53:58.031Z,10.30
2022-10-03T03:56:30.776Z,10.30
2022-10-03T03:59:27.411Z,10.20
2022-10-03T04:02:27.515Z,10.20
2022-10-03T04:05:32.313Z,10.30
2022-10-03T04:08:21.198Z,10.10
2022-10-03T04:10:59.411Z,10.00
2022-10-03T04:13:41.603Z,10.10
2022-10-03T04:16:46.092Z,10.00
2022-10-03T04:19:28.503Z,9.80
2022-10-03T04:22:12.068Z,9.70
2022-10-03T04:25:05.431Z,9.50
2022-10-03T04:27:59.273Z,9.70
2022-10-03T04:30:55.412Z,9.60
2022-10-03T04:33:57.244Z,9.70
2022-10-03T04:36:48.849Z,9.80
2022-10-03T04:39:42.738Z,9.80
2022-10-03T04:42:27.203Z,9.70
2022-10-03T04:45:12.468Z,9.80
2022-10-03T04:47:43.597Z,9.90
2022-10-03T04:50:31.115Z,9.90
2022-10-03T04:53:08.480Z,9.80
2022-10-03T04:56:12.757Z,9.90
2022-10-03T04:58:41.507Z,9.90
2022-10-03T05:01:33.734Z,9.90
2022-10-03T05:04:10.622Z,9.70
2022-10-03T05:07:01.436Z,9.90
2022-10-03T05:09:39.200Z,9.90
2022-10-03T05:12:29.559Z,10.00
2022-10-03T05:15:21.484Z,10.00
2022-10-03T05:18:10.732Z,10.00
2022-10-03T05:21:14.508Z,10.00
2022-10-03T05:24:15.504Z,9.70
2022-10-03T05:27:01.741Z,9.90
2022-10-03T05:29:36.833Z,9.90
2022-10-03T05:32:31.764Z,9.80
2022-10-03T05:35:17.298Z,9.70
2022-10-03T05:38:05.636Z,9.80
2022-10-03T05:40:39.485Z,9.80
2022-10-03T05:43:40.289Z,9.90
2022-10-03T05:46:44.727Z,9.90
2022-10-03T05:49:42.807Z,9.90
2022-10-03T05:52:50.476Z,9.80
2022-10-03T05:55:36.446Z,9.90
2022-10-03T05:58:33.505Z,9.90
2022-10-03T06:01:31.397Z,9.90
2022-10-03T06:04:35.809Z,9.90
2022-10-03T06:07:26.918Z,9.90
2022-10-03T06:10:25.806Z,10.00
2022-10-03T06:13:04.521Z,9.90
2022-10-03T06:15:54.261Z,10.00
2022-10-03T06:18:47.069Z,10.00
2022-10-03T06:21:19.847Z,10.00
2022-10-03T06:23:58.321Z,10.00
2022-10-03T06:26:30.533Z,10.10
2022-10-03T06:29:03.103Z,10.10
2022-10-03T06:31:50.471Z,10.10
2022-10-03T06:34:35.186Z,10.00
2022-10-03T06:37:28.309Z,10.00
2022-10-03T06:40:16.319Z,10.20
2022-10-03T06:42:51.937Z,10.30
2022-10-03T06:46:01.007Z,10.40
2022-10-03T06:48:47.014Z,10.50
2022-10-03T06:51:40.233Z,10.60
2022-10-03T06:54:35.203Z,10.70
2022-10-03T06:57:29.172Z,10.60
2022-10-03T07:00:06.709Z,10.70
2022-10-03T07:03:01.056Z,10.80
2022-10-03T07:05:48.595Z,10.90
2022-10-03T07:09:13.823Z,11.00
2022-10-03T07:12:28.127Z,11.20
2022-10-03T07:16:02.162Z,11.40
2022-10-03T07:18:42.056Z,11.50
2022-10-03T07:21:40.202Z,11.70
2022-10-03T07:24:26.064Z,11.90
2022-10-03T07:27:09.887Z,12.10
2022-10-03T07:30:09.782Z,12.00
2022-10-03T07:33:07.877Z,12.20
2022-10-03T07:36:09.382Z,12.40
2022-10-03T07:38:58.788Z,12.40
2022-10-03T07:41:43.475Z,12.50
2022-10-03T07:44:29.618Z,12.50
2022-10-03T07:47:11.178Z,12.50
2022-10-03T07:49:50.057Z,12.50
2022-10-03T07:52:47.556Z,12.50
2022-10-03T07:55:35.603Z,12.60
2022-10-03T07:58:26.650Z,12.80
2022-10-03T08:01:17.857Z,13.00
2022-10-03T08:03:44.579Z,13.10
2022-10-03T08:06:18.395Z,13.30
2022-10-03T08:09:22.207Z,13.50
2022-10-03T08:12:14.898Z,13.50
2022-10-03T08:15:08.603Z,13.50
2022-10-03T08:17:58.658Z,13.80
2022-10-03T08:21:00.678Z,14.10
2022-10-03T08:23:39.227Z,14.40
2022-10-03T08:26:28.325Z,14.50
2022-10-03T08:29:13.180Z,14.70
2022-10-03T08:32:00.963Z,15.00
2022-10-03T08:34:49.007Z,15.20
2022-10-03T08:37:34.245Z,15.70
2022-10-03T08:40:35.813Z,15.70
2022-10-03T08:43:33.400Z,15.70
2022-10-03T08:46:22.952Z,16.00
2022-10-03T08:49:10.866Z,15.70
2022-10-03T08:52:08.074Z,15.50
2022-10-03T08:55:13.590Z,15.50
2022-10-03T08:58:04.813Z,15.50
2022-10-03T09:00:52.734Z,15.50
2022-10-03T09:03:53.992Z,15.60
2022-10-03T09:06:27.031Z,15.60
2022-10-03T09:09:02.607Z,15.50
2022-10-03T09:11:59.931Z,15.70
2022-10-03T09:15:04.897Z,15.70
2022-10-03T09:17:52.826Z,15.90
2022-10-03T09:20:51.487Z,15.90
2022-10-03T09:23:54.103Z,16.00
2022-10-03T09:26:37.298Z,15.70
2022-10-03T09:29:25.853Z,15.60
2022-10-03T09:32:20.600Z,15.70
2022-10-03T09:34:50.345Z,15.60
2022-10-03T09:37:33.330Z,15.70
2022-10-03T09:40:18.141Z,16.10
2022-10-03T09:43:05.779Z,16.20
2022-10-03T09:45:51.307Z,16.20
2022-10-03T09:48:25.052Z,16.00
2022-10-03T09:51:06.934Z,15.90
2022-10-03T09:54:00.804Z,15.90
2022-10-03T09:56:44.270Z,15.90
2022-10-03T09:59:33.479Z,16.20
2022-10-03T10:02:15.013Z,16.20
2022-10-03T10:05:24.221Z,16.30
2022-10-03T10:08:09.445Z,16.30
2022-10-03T10:10:45.110Z,16.30
2022-10-03T10:14:07.284Z,16.20
2022-10-03T10:16:50.439Z,16.10
2022-10-03T10:19:53.619Z,16.20
2022-10-03T10:22:49.917Z,16.20
2022-10-03T10:25:37.356Z,16.50
2022-10-03T10:28:37.407Z,16.60
2022-10-03T10:31:22.812Z,16.80
2022-10-03T10:34:16.840Z,16.90
2022-10-03T10:37:08.333Z,17.00
2022-10-03T10:39:48.294Z,17.20
2022-10-03T10:42:17.809Z,17.20
2022-10-03T10:45:17.260Z,17.10
2022-10-03T10:48:00.915Z,17.20
2022-10-03T10:50:38.439Z,17.20
2022-10-03T10:53:42.796Z,17.00
2022-10-03T10:56:53.172Z,17.00
2022-10-03T10:59:47.612Z,17.00
2022-10-03T11:02:34.896Z,17.00
2022-10-03T11:05:29.830Z,16.90
2022-10-03T11:08:21.754Z,17.10
2022-10-03T11:11:30.128Z,17.00
2022-10-03T11:14:40.399Z,17.10
2022-10-03T11:17:26.780Z,17.30
2022-10-03T11:20:14.389Z,17.30
2022-10-03T11:23:03.837Z,17.20
2022-10-03T11:26:04.858Z,17.30
2022-10-03T11:29:09.266Z,17.40
2022-10-03T11:32:20.790Z,17.50
2022-10-03T11:35:13.202Z,17.90
2022-10-03T11:37:50.547Z,17.70
2022-10-03T11:40:32.317Z,17.60
2022-10-03T11:43:58.344Z,17.90
2022-10-03T11:46:39.889Z,18.40
2022-10-03T11:49:16.481Z,19.10
2022-10-03T11:51:53.651Z,19.10
2022-10-03T11:54:34.179Z,19.60
2022-10-03T11:57:26.694Z,19.40
2022-10-03T12:00:15.346Z,19.50
2022-10-03T12:03:27.466Z,19.40
2022-10-03T12:06:20.084Z,19.60
2022-10-03T12:09:28.134Z,19.70
2022-10-03T12:12:28.114Z,19.50
2022-10-03T12:15:01.173Z,19.40
2022-10-03T12:17:37.285Z,19.40
2022-10-03T12:20:04.889Z,19.50
2022-10-03T12:22:55.659Z,20.10
2022-10-03T12:25:30.340Z,20.10
2022-10-03T12:28:11.374Z,20.20
2022-10-03T12:30:42.962Z,20.50
2022-10-03T12:33:40.473Z,20.70
2022-10-03T12:36:15.556Z,20.40
2022-10-03T12:39:04.689Z,20.10
2022-10-03T12:41:53.322Z,20.10
2022-10-03T12:44:40.402Z,19.80
2022-10-03T12:47:43.919Z,19.30
2022-10-03T12:50:33.598Z,19.30
2022-10-03T12:53:15.313Z,19.30
2022-10-03T12:56:07.367Z,19.20
2022-10-03T12:58:39.818Z,19.20
2022-10-03T13:01:42.887Z,19.30
2022-10-03T13:04:29.826Z,18.90
2022-10-03T13:07:18.314Z,18.60
2022-10-03T13:10:15.499Z,18.60
2022-10-03T13:12:53.003Z,18.50
2022-10-03T13:15:19.717Z,18.50
2022-10-03T13:18:09.848Z,18.60
2022-10-03T13:20:43.573Z,18.50
2022-10-03T13:23:41.150Z,18.40
2022-10-03T13:26:25.464Z,18.30
2022-10-03T13:29:30.316Z,18.30
2022-10-03T13:32:12.384Z,18.30
2022-10-03T13:34:59.648Z,18.50
2022-10-03T13:37:50.267Z,18.50
2022-10-03T13:40:19.058Z,18.40
2022-10-03T13:42:53.481Z,18.50
2022-10-03T13:45:26.336Z,18.60
2022-10-03T13:48:01.213Z,18.40
2022-10-03T13:50:45.151Z,18.50
2022-10-03T13:53:39.895Z,18.40
2022-10-03T13:56:21.227Z,18.30
2022-10-03T13:58:59.716Z,18.20
2022-10-03T14:01:47.082Z,18.20
2022-10-03T14:04:28.585Z,17.90
2022-10-03T14:07:07.258Z,18.00
2022-10-03T14:09:46.202Z,18.00
2022-10-03T14:12:56.982Z,17.90
2022-10-03T14:15:44.129Z,18.00
2022-10-03T14:18:37.731Z,18.10
2022-10-03T14:21:29.375Z,17.90
2022-10-03T14:24:16.852Z,17.90
2022-10-03T14:26:49.757Z,17.80
2022-10-03T14:29:33.684Z,17.90
2022-10-03T14:32:46.146Z,17.90
2022-10-03T14:35:40.715Z,17.90
2022-10-03T14:38:56.989Z,18.00
2022-10-03T14:41:32.468Z,17.80
2022-10-03T14:44:12.645Z,17.80
2022-10-03T14:46:47.137Z,17.80
2022-10-03T14:52:45.851Z,17.50
2022-10-03T14:55:30.028Z,17.60
2022-10-03T14:58:21.792Z,17.60
2022-10-03T15:01:04.212Z,17.70
2022-10-03T15:03:39.365Z,17.80
2022-10-03T15:06:13.270Z,17.60
2022-10-03T15:09:02.524Z,17.70
2022-10-03T15:11:33.341Z,17.70
2022-10-03T15:14:06.306Z,17.80
2022-10-03T15:16:38.909Z,17.70
2022-10-03T15:19:12.940Z,17.70
2022-10-03T15:21:45.189Z,17.40
2022-10-03T15:24:24.954Z,17.50
2022-10-03T15:27:01.330Z,17.50
2022-10-03T15:29:29.389Z,17.60
2022-10-03T15:31:58.186Z,17.60
2022-10-03T15:34:39.160Z,17.50
2022-10-03T15:37:15.495Z,17.50
2022-10-03T15:39:43.972Z,17.50
2022-10-03T15:42:10.626Z,17.50
2022-10-03T15:44:50.285Z,17.60
2022-10-03T15:47:44.847Z,17.50
2022-10-03T15:50:18.967Z,17.60
2022-10-03T15:52:52.912Z,17.50
2022-10-03T15:55:39.638Z,17.50
2022-10-03T15:58:16.336Z,17.60
2022-10-03T16:00:46.002Z,17.40
2022-10-03T16:03:26.176Z,17.50
2022-10-03T16:05:57.973Z,17.50
2022-10-03T16:08:30.461Z,17.60
2022-10-03T16:11:09.477Z,17.60
2022-10-03T16:13:41.039Z,17.50
2022-10-03T16:16:10.906Z,17.40
2022-10-03T16:18:56.052Z,17.40
2022-10-03T16:21:41.885Z,17.50
2022-10-03T16:24:19.789Z,17.40
2022-10-03T16:26:57.997Z,17.50
2022-10-03T16:29:31.026Z,17.40
2022-10-03T16:32:06.635Z,17.40
2022-10-03T16:34:36.040Z,17.40
2022-10-03T16:37:06.986Z,17.30
2022-10-03T16:39:36.010Z,17.30
2022-10-03T16:42:21.285Z,17.10
2022-10-03T16:44:48.096Z,17.20
2022-10-03T16:47:16.860Z,17.10
2022-10-03T16:50:17.581Z,17.00
2022-10-03T16:52:52.086Z,17.10
2022-10-03T16:55:46.636Z,17.00
2022-10-03T16:58:23.565Z,17.00
2022-10-03T17:01:25.832Z,17.00
2022-10-03T17:04:13.207Z,16.90
2022-10-03T17:06:40.507Z,16.80
2022-10-03T17:09:20.293Z,16.60
2022-10-03T17:11:53.241Z,16.50
2022-10-03T17:14:21.924Z,16.50
2022-10-03T17:17:21.258Z,16.50
2022-10-03T17:20:14.917Z,16.50
2022-10-03T17:22:53.044Z,16.40
2022-10-03T17:25:25.661Z,16.20
2022-10-03T17:27:53.468Z,16.30
2022-10-03T17:30:33.136Z,16.30
2022-10-03T17:33:11.807Z,16.30
2022-10-03T17:35:47.986Z,16.20
2022-10-03T17:41:43.077Z,16.20
2022-10-03T17:44:47.763Z,16.10
2022-10-03T17:47:58.074Z,16.10
2022-10-03T17:50:43.728Z,16.10
2022-10-03T17:53:21.893Z,16.10
2022-10-03T17:55:55.926Z,16.00
2022-10-03T17:58:25.688Z,15.90
2022-10-03T18:01:12.428Z,15.90
2022-10-03T18:04:11.172Z,15.90
2022-10-03T18:06:45.915Z,15.80
2022-10-03T18:09:15.700Z,15.70
2022-10-03T18:11:45.108Z,15.70
2022-10-03T18:14:36.843Z,15.80
2022-10-03T18:17:35.163Z,15.70
2022-10-03T18:20:22.874Z,15.70
2022-10-03T18:22:58.752Z,15.60
2022-10-03T18:26:18.602Z,15.50
2022-10-03T18:29:05.893Z,15.40
2022-10-03T18:31:35.258Z,15.40
2022-10-03T18:34:13.809Z,15.40
2022-10-03T18:36:47.559Z,15.40
2022-10-03T18:39:26.899Z,15.30
2022-10-03T18:41:58.705Z,15.30
2022-10-03T18:44:30.011Z,15.30
2022-10-03T18:47:21.557Z,15.30
2022-10-03T18:50:12.811Z,15.30
2022-10-03T18:53:04.148Z,15.30
2022-10-03T18:56:09.844Z,15.30
2022-10-03T18:58:38.880Z,15.30
2022-10-03T19:01:25.030Z,15.20
2022-10-03T19:03:56.032Z,15.20
2022-10-03T19:06:29.403Z,15.10
2022-10-03T19:09:28.922Z,15.10
2022-10-03T19:12:21.772Z,15.00
2022-10-03T19:15:07.657Z,14.80
2022-10-03T19:17:36.679Z,14.80
2022-10-03T19:20:26.253Z,14.90
2022-10-03T19:23:32.748Z,14.80
2022-10-03T19:26:08.641Z,14.80
2022-10-03T19:28:44.375Z,14.80
2022-10-03T19:31:30.865Z,14.80
2022-10-03T19:34:25.631Z,14.70
2022-10-03T19:36:55.305Z,14.70
2022-10-03T19:39:23.039Z,14.70
2022-10-03T19:42:13.500Z,14.70
2022-10-03T19:44:40.596Z,14.60
2022-10-03T19:47:19.461Z,14.60
2022-10-03T19:49:49.024Z,14.50
2022-10-03T19:52:26.956Z,14.60
2022-10-03T19:55:00.458Z,14.70
2022-10-03T19:57:37.729Z,14.70
2022-10-03T20:00:15.547Z,14.70
2022-10-03T20:02:44.020Z,14.70
2022-10-03T20:05:19.629Z,14.70
2022-10-03T20:07:52.030Z,14.70
2022-10-03T20:10:40.625Z,14.70
2022-10-03T20:13:10.172Z,14.70
2022-10-03T20:15:45.337Z,14.70
2022-10-03T20:18:19.856Z,14.70
2022-10-03T20:20:53.474Z,14.70
2022-10-03T20:23:23.456Z,14.60
2022-10-03T20:26:05.065Z,14.60
2022-10-03T20:28:52.565Z,14.60
2022-10-03T20:31:23.356Z,14.60
2022-10-03T20:33:53.553Z,14.60
2022-10-03T20:36:31.946Z,14.50
2022-10-03T20:39:07.135Z,14.60
2022-10-03T20:42:04.765Z,14.60
2022-10-03T20:45:06.818Z,14.60
2022-10-03T20:48:01.040Z,14.50
2022-10-03T20:50:46.934Z,14.50
2022-10-03T20:53:29.230Z,14.50
2022-10-03T20:56:12.935Z,14.50
2022-10-03T20:58:51.101Z,14.40
2022-10-03T21:01:23.312Z,14.40
2022-10-03T21:03:58.641Z,14.40
2022-10-03T21:06:31.125Z,14.50
2022-10-03T21:08:59.037Z,14.50
2022-10-03T21:11:29.111Z,14.50
2022-10-03T21:14:32.517Z,14.40
2022-10-03T21:17:00.586Z,14.40
2022-10-03T21:19:33.171Z,14.40
2022-10-03T21:22:03.687Z,14.40
2022-10-03T21:24:37.879Z,14.40
2022-10-03T21:27:13.954Z,14.40
2022-10-03T21:29:52.267Z,14.30
2022-10-03T21:32:46.309Z,14.40
2022-10-03T21:35:22.226Z,14.40
2022-10-03T21:38:08.073Z,14.40
2022-10-03T21:40:56.930Z,14.40
2022-10-03T21:43:48.351Z,14.30
2022-10-03T21:46:44.353Z,14.30
2022-10-03T21:49:42.551Z,14.20
2022-10-03T21:52:22.216Z,14.20
2022-10-03T21:54:51.705Z,14.10
2022-10-03T21:57:24.783Z,14.10
2022-10-03T21:59:57.248Z,14.10
2022-10-03T22:02:29.737Z,14.00
2022-10-03T22:05:08.474Z,14.00
2022-10-03T22:07:40.447Z,14.00
2022-10-03T22:10:22.184Z,13.90
2022-10-03T22:12:52.533Z,13.90
2022-10-03T22:15:36.739Z,13.90
2022-10-03T22:18:22.148Z,13.90
2022-10-03T22:21:12.855Z,13.80
2022-10-03T22:23:48.385Z,13.80
2022-10-03T22:26:18.455Z,13.80
2022-10-03T22:28:54.321Z,13.80
2022-10-03T22:31:57.910Z,13.80
2022-10-03T22:34:53.496Z,13.70
2022-10-03T22:37:21.105Z,13.70
2022-10-03T22:39:49.339Z,13.70
2022-10-03T22:42:17.817Z,13.70
2022-10-03T22:44:47.861Z,13.70
2022-10-03T22:47:24.101Z,13.70
2022-10-03T22:49:58.800Z,13.60
2022-10-03T22:52:32.516Z,13.70
2022-10-03T22:55:01.667Z,13.70
2022-10-03T22:57:35.000Z,13.70
2022-10-03T23:00:12.322Z,13.80
2022-10-03T23:02:57.790Z,13.80
2022-10-03T23:05:36.233Z,13.80
2022-10-03T23:08:32.602Z,13.80
2022-10-03T23:11:12.115Z,13.80
2022-10-03T23:13:41.514Z,13.80
2022-10-03T23:16:41.042Z,13.70
2022-10-03T23:19:19.593Z,13.70
2022-10-03T23:21:51.378Z,13.70
2022-10-03T23:24:50.495Z,13.80
2022-10-03T23:27:23.124Z,13.80
2022-10-03T23:30:11.820Z,13.90
2022-10-03T23:32:47.737Z,13.90
2022-10-03T23:35:41.568Z,13.80
2022-10-03T23:38:33.298Z,13.80
2022-10-03T23:41:03.841Z,13.70
2022-10-03T23:43:38.175Z,13.70
2022-10-03T23:46:19.507Z,13.70
2022-10-03T23:49:01.166Z,13.60
2022-10-03T23:51:36.029Z,13.70
2022-10-03T23:54:06.199Z,13.70
2022-10-03T23:56:46.317Z,13.70
2022-10-03T23:59:15.722Z,13.60
